📊 Raw Sensor Data

Showing records 37726 to 37750 of 84,918 total

ID Distance (ft) Battery V Battery A Int Temp (°F) Int Humid (%) Ext Temp (°F) Solar V RSSI SNR Time Stamp
47205 15.3 3.92 0 71 43 69 5.10 -70 8 07/24/2025 10:00 AM
47204 15.4 3.86 0 70 43 69 5.10 -71 8 07/24/2025 09:45 AM
47203 15.4 3.82 0 70 43 69 5.10 -72 8 07/24/2025 09:30 AM
47202 15.4 3.82 0 69 43 71 5.10 -71 7 07/24/2025 09:15 AM
47201 15.4 3.83 0 68 44 71 5.10 -72 7 07/24/2025 09:00 AM
47200 15.4 3.86 6 67 44 68 5.10 -70 8 07/24/2025 08:45 AM
47199 15.4 3.87 10 66 43 67 5.10 -71 8 07/24/2025 08:30 AM
47198 15.4 4.04 106 64 43 68 4.50 -71 8 07/24/2025 08:15 AM
47197 15.3 4.02 70 63 43 67 4.60 -71 7 07/24/2025 08:00 AM
47196 15.3 4.02 41 62 43 64 4.50 -72 8 07/24/2025 07:45 AM
47195 15.3 3.88 30 61 42 65 4.50 -72 8 07/24/2025 07:30 AM
47194 15.3 3.87 -7 59 42 63 4.50 -71 7 07/24/2025 07:15 AM
47193 15.2 3.85 0 56 43 61 4.50 -70 8 07/24/2025 06:45 AM
47192 15.1 3.79 -7 54 43 56 4.50 -71 8 07/24/2025 06:15 AM
47191 15.1 3.79 -10 54 43 55 1.60 -70 8 07/24/2025 06:00 AM
47190 15.1 3.80 -5 53 43 55 0.50 -71 8 07/24/2025 05:45 AM
47189 15.1 3.80 -5 53 43 55 0.00 -72 8 07/24/2025 05:30 AM
47188 15.1 3.84 -5 53 44 55 0.00 -71 8 07/24/2025 05:15 AM
47187 15.1 3.80 -5 53 44 55 0.10 -71 8 07/24/2025 05:00 AM
47186 15.1 3.80 -5 53 44 55 0.00 -72 8 07/24/2025 04:45 AM
47185 15.1 3.80 -5 53 44 55 0.00 -72 8 07/24/2025 04:30 AM
47184 15.1 3.85 -5 54 44 55 0.00 -71 8 07/24/2025 04:15 AM
47183 15.1 3.80 -5 54 44 55 0.00 -73 8 07/24/2025 04:00 AM
47182 15.1 3.79 -5 54 44 55 0.00 -72 8 07/24/2025 03:45 AM
47181 15.1 3.85 -5 54 44 55 0.00 -71 9 07/24/2025 03:30 AM